Terminal Aerodrome Forecast
Issued by NWS

Home | Current Version | Previous Version | Text Only | Print | Product List | Glossary On
Versions: 1 2 3 4 5 6 7 8 9 10 11 12 13 14 15 16 17 18 19 20 21 22
116
FTUS43 KIND 231722
TAFLAF
TAF
KLAF 231722Z 2318/2418 35010G18KT P6SM OVC008
      TEMPO 2318/2319 4SM BR
     FM240000 34009KT P6SM OVC010
     FM240400 33006KT 4SM BR BKN010
     FM241500 00000KT P6SM BKN015
     FM241700 VRB03KT P6SM BKN025=

USA.gov is the U.S. government's official web portal to all federal, state and local government web resources and services.